createdAt,value
2022-12-11T00:00:01.747Z,18.15
2022-12-11T00:02:31.676Z,17.35
2022-12-11T00:04:59.894Z,15.60
2022-12-11T00:07:27.484Z,15.25
2022-12-11T00:09:54.879Z,17.17
2022-12-11T00:12:22.569Z,15.85
2022-12-11T00:14:49.940Z,15.05
2022-12-11T00:17:17.241Z,14.05
2022-12-11T00:19:44.644Z,14.35
2022-12-11T00:22:11.911Z,13.18
2022-12-11T00:24:39.243Z,14.13
2022-12-11T00:27:06.625Z,15.20
2022-12-11T00:29:33.877Z,14.20
2022-12-11T00:32:01.775Z,12.45
2022-12-11T00:34:29.176Z,13.32
2022-12-11T00:36:56.578Z,13.85
2022-12-11T00:39:27.434Z,14.27
2022-12-11T00:41:55.891Z,13.13
2022-12-11T00:44:23.359Z,13.20
2022-12-11T00:46:50.869Z,13.90
2022-12-11T00:49:18.447Z,15.02
2022-12-11T00:51:45.800Z,14.70
2022-12-11T00:54:13.294Z,13.57
2022-12-11T00:56:41.141Z,14.00
2022-12-11T00:59:09.616Z,13.43
2022-12-11T01:01:37.476Z,11.68
2022-12-11T01:04:07.694Z,10.23
2022-12-11T01:06:34.962Z,11.10
2022-12-11T01:09:21.116Z,10.95
2022-12-11T01:11:48.475Z,11.45
2022-12-11T01:14:15.755Z,12.38
2022-12-11T01:16:43.388Z,14.75
2022-12-11T01:19:10.702Z,12.05
2022-12-11T01:21:38.126Z,13.00
2022-12-11T01:24:06.135Z,12.88
2022-12-11T01:26:33.356Z,13.68
2022-12-11T01:29:01.392Z,13.48
2022-12-11T01:31:28.667Z,12.73
2022-12-11T01:33:56.194Z,13.05
2022-12-11T01:36:24.204Z,13.23
2022-12-11T01:38:51.575Z,13.18
2022-12-11T01:41:19.002Z,12.35
2022-12-11T01:44:07.889Z,11.80
2022-12-11T01:46:36.334Z,12.53
2022-12-11T01:49:07.994Z,11.45
2022-12-11T01:51:44.119Z,12.23
2022-12-11T01:54:12.963Z,12.43
2022-12-11T01:56:42.412Z,11.88
2022-12-11T01:59:10.638Z,11.32
2022-12-11T02:01:45.730Z,12.18
2022-12-11T02:04:15.533Z,10.80
2022-12-11T02:06:45.106Z,11.13
2022-12-11T02:09:19.213Z,10.43
2022-12-11T02:12:04.785Z,10.13
2022-12-11T02:14:53.799Z,10.57
2022-12-11T02:17:42.333Z,9.77
2022-12-11T02:20:22.530Z,9.00
2022-12-11T02:22:55.757Z,9.95
2022-12-11T02:25:32.247Z,10.05
2022-12-11T02:28:17.834Z,9.25
2022-12-11T02:30:50.809Z,9.25
2022-12-11T02:33:26.824Z,9.55
2022-12-11T02:35:54.707Z,9.88
2022-12-11T02:38:30.023Z,10.48
2022-12-11T02:40:58.490Z,10.30
2022-12-11T02:43:25.969Z,10.95
2022-12-11T02:45:53.886Z,10.25
2022-12-11T02:48:22.699Z,11.05
2022-12-11T02:50:55.701Z,10.88
2022-12-11T02:53:26.835Z,11.63
2022-12-11T02:56:00.746Z,11.15
2022-12-11T02:58:31.619Z,11.27
2022-12-11T03:00:58.983Z,9.85
2022-12-11T03:03:28.739Z,8.43
2022-12-11T03:05:56.244Z,9.10
2022-12-11T03:08:23.570Z,9.05
2022-12-11T03:10:50.908Z,9.43
2022-12-11T03:13:20.508Z,10.20
2022-12-11T03:16:05.495Z,9.75
2022-12-11T03:18:49.103Z,9.88
2022-12-11T03:21:27.948Z,9.40
2022-12-11T03:23:55.196Z,8.95
2022-12-11T03:26:23.174Z,8.85
2022-12-11T03:29:00.288Z,8.20
2022-12-11T03:31:43.971Z,8.32
2022-12-11T03:34:19.744Z,7.93
2022-12-11T03:36:47.693Z,7.22
2022-12-11T03:39:33.949Z,7.35
2022-12-11T03:42:03.855Z,8.48
2022-12-11T03:44:32.596Z,7.70
2022-12-11T03:47:02.091Z,7.95
2022-12-11T03:49:32.506Z,8.60
2022-12-11T03:52:00.377Z,8.65
2022-12-11T03:54:28.095Z,9.45
2022-12-11T03:56:57.652Z,9.18
2022-12-11T03:59:25.083Z,9.68
2022-12-11T04:01:52.512Z,8.73
2022-12-11T04:04:20.531Z,8.48
2022-12-11T04:06:47.880Z,8.93
2022-12-11T04:09:15.436Z,9.02
2022-12-11T04:11:43.073Z,8.07
2022-12-11T04:14:33.021Z,8.52
2022-12-11T04:17:01.532Z,8.35
2022-12-11T04:19:47.683Z,7.90
2022-12-11T04:22:35.044Z,8.52
2022-12-11T04:25:04.911Z,7.97
2022-12-11T04:30:21.546Z,8.27
2022-12-11T04:32:49.474Z,7.72
2022-12-11T04:35:17.117Z,7.22
2022-12-11T04:37:44.629Z,8.25
2022-12-11T04:40:14.985Z,8.90
2022-12-11T04:42:42.407Z,7.97
2022-12-11T04:45:10.982Z,8.40
2022-12-11T04:47:39.767Z,8.65
2022-12-11T04:50:09.313Z,9.13
2022-12-11T04:52:36.762Z,8.70
2022-12-11T04:55:05.979Z,7.65
2022-12-11T04:57:33.864Z,8.60
2022-12-11T05:00:02.013Z,8.55
2022-12-11T05:02:29.352Z,7.90
2022-12-11T05:04:56.685Z,8.68
2022-12-11T05:07:24.514Z,8.98
2022-12-11T05:09:51.736Z,9.32
2022-12-11T05:12:19.091Z,9.15
2022-12-11T05:14:46.431Z,9.20
2022-12-11T05:17:13.910Z,8.80
2022-12-11T05:19:41.287Z,9.43
2022-12-11T05:22:08.579Z,9.70
2022-12-11T05:24:35.896Z,9.98
2022-12-11T05:27:03.218Z,10.45
2022-12-11T05:29:30.414Z,9.88
2022-12-11T05:31:57.666Z,10.00
2022-12-11T05:34:25.001Z,9.88
2022-12-11T05:36:52.491Z,9.88
2022-12-11T05:39:19.936Z,9.15
2022-12-11T05:41:47.226Z,9.00
2022-12-11T05:44:14.524Z,9.60
2022-12-11T05:46:41.856Z,8.48
2022-12-11T05:49:10.663Z,9.05
2022-12-11T05:51:39.768Z,8.63
2022-12-11T05:54:07.338Z,8.90
2022-12-11T05:56:34.994Z,8.73
2022-12-11T05:59:03.570Z,9.38
2022-12-11T06:01:41.616Z,9.63
2022-12-11T06:04:10.946Z,10.18
2022-12-11T06:06:40.689Z,10.57
2022-12-11T06:09:08.146Z,11.88
2022-12-11T06:11:35.908Z,11.48
2022-12-11T06:14:03.854Z,10.38
2022-12-11T06:16:32.188Z,10.68
2022-12-11T06:19:03.020Z,10.45
2022-12-11T06:21:33.756Z,11.02
2022-12-11T06:24:03.648Z,11.50
2022-12-11T06:28:59.556Z,11.32
2022-12-11T06:31:27.622Z,11.77
2022-12-11T06:33:55.137Z,11.70
2022-12-11T06:36:24.265Z,12.07
2022-12-11T06:38:52.459Z,13.07
2022-12-11T06:41:19.727Z,13.35
2022-12-11T06:43:47.349Z,12.82
2022-12-11T06:46:19.188Z,14.02
2022-12-11T06:48:46.914Z,14.95
2022-12-11T06:51:16.803Z,13.88
2022-12-11T06:53:44.799Z,17.33
2022-12-11T06:56:15.287Z,16.85
2022-12-11T06:58:43.921Z,17.23
2022-12-11T07:01:19.463Z,17.75
2022-12-11T07:03:47.298Z,18.48
2022-12-11T07:06:16.100Z,18.20
2022-12-11T07:08:43.634Z,19.92
2022-12-11T07:11:12.966Z,20.70
2022-12-11T07:13:42.039Z,19.65
2022-12-11T07:16:11.604Z,20.63
2022-12-11T07:18:43.693Z,19.60
2022-12-11T07:21:13.071Z,20.33
2022-12-11T07:23:41.328Z,20.48
2022-12-11T07:26:12.018Z,21.15
2022-12-11T07:28:40.045Z,21.40
2022-12-11T07:31:09.266Z,21.75
2022-12-11T07:33:36.705Z,22.52
2022-12-11T07:36:08.367Z,21.67
2022-12-11T07:38:36.114Z,21.15
2022-12-11T07:41:05.459Z,22.73
2022-12-11T07:43:36.180Z,23.08
2022-12-11T07:46:12.873Z,23.15
2022-12-11T07:48:41.889Z,24.05
2022-12-11T07:51:12.692Z,22.77
2022-12-11T07:53:39.963Z,24.05
2022-12-11T07:56:07.863Z,25.23
2022-12-11T07:58:36.100Z,23.42
2022-12-11T08:01:03.428Z,24.17
2022-12-11T08:03:30.967Z,24.27
2022-12-11T08:05:58.175Z,23.00
2022-12-11T08:08:25.684Z,23.23
2022-12-11T08:10:53.439Z,24.33
2022-12-11T08:13:20.671Z,23.50
2022-12-11T08:15:48.954Z,21.45
2022-12-11T08:18:16.359Z,20.85
2022-12-11T08:20:43.608Z,27.83
2022-12-11T08:23:11.902Z,23.35
2022-12-11T08:25:39.320Z,22.90
2022-12-11T08:28:06.954Z,23.95
2022-12-11T08:30:34.257Z,24.52
2022-12-11T08:33:01.693Z,21.10
2022-12-11T08:35:29.000Z,20.60
2022-12-11T08:37:56.247Z,21.05
2022-12-11T08:40:23.772Z,20.25
2022-12-11T08:42:52.285Z,20.83
2022-12-11T08:45:19.675Z,19.45
2022-12-11T08:47:46.926Z,18.85
2022-12-11T08:50:14.312Z,17.67
2022-12-11T08:52:44.262Z,18.23
2022-12-11T08:55:11.878Z,18.35
2022-12-11T08:57:39.902Z,18.90
2022-12-11T09:00:09.336Z,18.85
2022-12-11T09:02:36.650Z,18.17
2022-12-11T09:05:09.095Z,18.20
2022-12-11T09:07:37.598Z,19.40
2022-12-11T09:10:06.207Z,18.38
2022-12-11T09:12:37.130Z,17.05
2022-12-11T09:15:05.125Z,26.33
2022-12-11T09:17:35.325Z,21.27
2022-12-11T09:20:05.324Z,17.60
2022-12-11T09:22:33.732Z,18.23
2022-12-11T09:25:03.149Z,18.65
2022-12-11T09:27:30.422Z,18.88
2022-12-11T09:29:57.882Z,18.17
2022-12-11T09:32:25.112Z,18.42
2022-12-11T09:34:52.400Z,17.38
2022-12-11T09:37:19.640Z,18.25
2022-12-11T09:39:47.013Z,17.52
2022-12-11T09:42:35.833Z,16.55
2022-12-11T09:45:05.050Z,15.73
2022-12-11T09:47:43.337Z,15.60
2022-12-11T09:50:10.529Z,15.90
2022-12-11T09:52:39.121Z,17.00
2022-12-11T09:55:24.282Z,16.60
2022-12-11T09:58:16.977Z,17.17
2022-12-11T10:00:51.207Z,17.00
2022-12-11T10:03:24.626Z,17.00
2022-12-11T10:06:29.742Z,17.02
2022-12-11T10:09:18.573Z,17.83
2022-12-11T10:12:15.914Z,16.60
2022-12-11T10:15:24.540Z,16.73
2022-12-11T10:17:54.963Z,17.48
2022-12-11T10:20:29.243Z,16.73
2022-12-11T10:22:57.398Z,16.70
2022-12-11T10:25:30.182Z,15.27
2022-12-11T10:27:57.947Z,15.65
2022-12-11T10:30:30.459Z,15.60
2022-12-11T10:33:24.913Z,15.88
2022-12-11T10:35:55.170Z,15.63
2022-12-11T10:38:31.095Z,15.90
2022-12-11T10:41:01.908Z,15.38
2022-12-11T10:43:37.182Z,17.05
2022-12-11T10:46:05.564Z,15.85
2022-12-11T10:48:33.332Z,20.15
2022-12-11T10:51:07.057Z,16.15
2022-12-11T10:53:35.000Z,17.17
2022-12-11T10:56:02.452Z,15.65
2022-12-11T10:58:34.677Z,16.38
2022-12-11T11:01:18.516Z,16.23
2022-12-11T11:04:03.532Z,16.92
2022-12-11T11:06:30.930Z,17.50
2022-12-11T11:09:00.381Z,16.95
2022-12-11T11:11:36.921Z,17.65
2022-12-11T11:14:25.729Z,17.67
2022-12-11T11:16:56.496Z,17.40
2022-12-11T11:19:28.885Z,17.52
2022-12-11T11:21:58.664Z,17.92
2022-12-11T11:24:49.190Z,17.33
2022-12-11T11:27:37.144Z,17.30
2022-12-11T11:30:08.458Z,18.10
2022-12-11T11:32:40.201Z,17.75
2022-12-11T11:35:11.620Z,18.10
2022-12-11T11:37:49.075Z,18.65
2022-12-11T11:40:19.655Z,16.88
2022-12-11T11:43:11.270Z,17.20
2022-12-11T11:45:44.753Z,18.13
2022-12-11T11:48:40.001Z,16.73
2022-12-11T11:51:15.906Z,17.65
2022-12-11T11:53:48.449Z,18.20
2022-12-11T11:56:23.515Z,16.63
2022-12-11T11:59:23.631Z,16.73
2022-12-11T12:01:54.598Z,17.00
2022-12-11T12:04:22.231Z,13.13
2022-12-11T12:07:01.577Z,17.92
2022-12-11T12:09:44.160Z,24.25
2022-12-11T12:12:19.406Z,20.00
2022-12-11T12:15:28.745Z,18.88
2022-12-11T12:17:58.845Z,18.60
2022-12-11T12:20:50.956Z,19.65
2022-12-11T12:23:37.306Z,17.45
2022-12-11T12:26:27.274Z,21.08
2022-12-11T12:29:21.547Z,23.33
2022-12-11T12:32:26.404Z,18.08
2022-12-11T12:35:21.801Z,18.45
2022-12-11T12:38:00.087Z,18.00
2022-12-11T12:40:32.975Z,17.33
2022-12-11T12:43:19.551Z,18.00
2022-12-11T12:46:13.118Z,18.05
2022-12-11T12:48:40.474Z,18.83
2022-12-11T12:51:07.960Z,18.42
2022-12-11T12:53:36.948Z,18.67
2022-12-11T12:56:06.083Z,19.25
2022-12-11T12:58:41.461Z,19.17
2022-12-11T13:01:10.769Z,19.25
2022-12-11T13:03:51.111Z,19.10
2022-12-11T13:06:29.601Z,18.55
2022-12-11T13:08:57.241Z,16.83
2022-12-11T13:11:33.196Z,16.52
2022-12-11T13:14:05.351Z,16.42
2022-12-11T13:16:38.986Z,15.80
2022-12-11T13:19:27.914Z,17.35
2022-12-11T13:21:56.404Z,18.13
2022-12-11T13:24:23.712Z,17.50
2022-12-11T13:26:51.786Z,18.38
2022-12-11T13:29:48.514Z,18.05
2022-12-11T13:32:18.833Z,18.27
2022-12-11T13:34:54.132Z,18.02
2022-12-11T13:37:26.197Z,16.77
2022-12-11T13:39:53.651Z,17.50
2022-12-11T13:42:29.629Z,17.02
2022-12-11T13:44:57.590Z,19.13
2022-12-11T13:47:25.321Z,18.55
2022-12-11T13:50:02.818Z,18.98
2022-12-11T13:52:31.121Z,18.98
2022-12-11T13:54:59.348Z,19.02
2022-12-11T13:57:28.620Z,18.73
2022-12-11T13:59:57.753Z,17.80
2022-12-11T14:02:38.747Z,18.35
2022-12-11T14:05:09.227Z,17.58
2022-12-11T14:07:50.230Z,18.45
2022-12-11T14:10:23.250Z,18.00
2022-12-11T14:12:58.694Z,18.52
2022-12-11T14:15:27.363Z,18.00
2022-12-11T14:17:55.103Z,18.85
2022-12-11T14:20:27.890Z,18.15
2022-12-11T14:23:06.631Z,17.70
2022-12-11T14:25:34.012Z,17.65
2022-12-11T14:28:01.741Z,18.63
2022-12-11T14:30:32.554Z,17.10
2022-12-11T14:33:04.502Z,18.13
2022-12-11T14:35:39.404Z,18.20
2022-12-11T14:38:24.277Z,19.13
2022-12-11T14:40:59.879Z,17.92
2022-12-11T14:43:38.091Z,18.48
2022-12-11T14:46:09.493Z,23.37
2022-12-11T14:48:44.957Z,25.23
2022-12-11T14:51:20.495Z,21.90
2022-12-11T14:53:49.309Z,20.42
2022-12-11T14:56:21.951Z,21.05
2022-12-11T14:58:58.739Z,20.98
2022-12-11T15:01:30.204Z,19.88
2022-12-11T15:04:15.927Z,21.08
2022-12-11T15:06:45.130Z,19.60
2022-12-11T15:09:27.839Z,20.77
2022-12-11T15:12:07.750Z,19.73
2022-12-11T15:14:35.071Z,19.70
2022-12-11T15:17:02.526Z,21.23
2022-12-11T15:19:32.223Z,22.30
2022-12-11T15:22:07.806Z,23.23
2022-12-11T15:24:37.522Z,23.63
2022-12-11T15:27:06.108Z,21.90
2022-12-11T15:29:39.609Z,21.63
2022-12-11T15:32:09.836Z,21.70
2022-12-11T15:34:52.583Z,21.70
2022-12-11T15:37:27.396Z,22.58
2022-12-11T15:39:56.327Z,22.70
2022-12-11T15:42:32.997Z,23.52
2022-12-11T15:45:00.730Z,24.38
2022-12-11T15:47:31.123Z,23.08
2022-12-11T15:50:00.633Z,23.80
2022-12-11T15:52:28.282Z,22.48
2022-12-11T15:54:55.674Z,23.55
2022-12-11T15:57:24.265Z,23.75
2022-12-11T15:59:54.939Z,23.67
2022-12-11T16:02:24.374Z,23.80
2022-12-11T16:04:51.900Z,24.63
2022-12-11T16:07:21.525Z,24.55
2022-12-11T16:09:49.217Z,25.60
2022-12-11T16:12:16.573Z,30.77
2022-12-11T16:14:47.087Z,24.85
2022-12-11T16:17:15.700Z,23.73
2022-12-11T16:19:44.009Z,22.98
2022-12-11T16:22:12.722Z,23.83
2022-12-11T16:24:40.250Z,24.42
2022-12-11T16:27:09.572Z,25.27
2022-12-11T16:29:37.757Z,25.30
2022-12-11T16:32:07.085Z,26.52
2022-12-11T16:34:36.174Z,25.35
2022-12-11T16:37:04.796Z,24.93
2022-12-11T16:39:32.318Z,26.40
2022-12-11T16:41:59.613Z,26.42
2022-12-11T16:44:27.438Z,25.60
2022-12-11T16:46:55.279Z,24.88
2022-12-11T16:49:22.600Z,25.77
2022-12-11T16:51:49.990Z,26.17
2022-12-11T16:54:17.962Z,24.67
2022-12-11T16:56:45.729Z,27.60
2022-12-11T16:59:13.110Z,26.38
2022-12-11T17:01:41.095Z,28.70
2022-12-11T17:04:08.897Z,26.77
2022-12-11T17:06:36.537Z,27.30
2022-12-11T17:09:03.871Z,27.60
2022-12-11T17:11:31.154Z,29.05
2022-12-11T17:13:59.819Z,30.02
2022-12-11T17:16:30.342Z,30.85
2022-12-11T17:18:59.005Z,30.70
2022-12-11T17:21:26.323Z,30.20
2022-12-11T17:23:53.695Z,30.73
2022-12-11T17:26:21.455Z,31.00
2022-12-11T17:28:48.738Z,31.58
2022-12-11T17:31:17.808Z,31.77
2022-12-11T17:33:46.315Z,32.60
2022-12-11T17:36:19.017Z,31.35
2022-12-11T17:38:46.842Z,30.05
2022-12-11T17:41:20.415Z,29.02
2022-12-11T17:43:50.346Z,27.90
2022-12-11T17:46:21.124Z,28.83
2022-12-11T17:48:51.383Z,27.88
2022-12-11T17:51:23.980Z,27.42
2022-12-11T17:53:53.239Z,29.80
2022-12-11T17:56:20.759Z,28.60
2022-12-11T17:58:48.726Z,29.40
2022-12-11T18:01:16.329Z,30.65
2022-12-11T18:03:43.629Z,30.35
2022-12-11T18:06:14.647Z,30.88
2022-12-11T18:08:44.545Z,31.35
2022-12-11T18:13:41.962Z,31.43
2022-12-11T18:16:13.526Z,29.55
2022-12-11T18:18:40.832Z,33.08
2022-12-11T18:21:13.085Z,30.08
2022-12-11T18:23:40.496Z,31.92
2022-12-11T18:26:08.240Z,30.90
2022-12-11T18:28:35.541Z,30.55
2022-12-11T18:31:03.999Z,31.33
2022-12-11T18:33:32.173Z,30.70
2022-12-11T18:35:59.633Z,31.02
2022-12-11T18:38:26.904Z,35.97
2022-12-11T18:40:54.353Z,32.10
2022-12-11T18:43:21.644Z,31.73
2022-12-11T18:45:49.035Z,32.13
2022-12-11T18:48:16.574Z,30.77
2022-12-11T18:50:48.713Z,30.90
2022-12-11T18:53:17.226Z,30.48
2022-12-11T18:55:47.475Z,31.00
2022-12-11T18:58:17.674Z,30.75
2022-12-11T19:00:46.358Z,31.02
2022-12-11T19:03:14.217Z,31.25
2022-12-11T19:05:43.680Z,30.88
2022-12-11T19:08:12.656Z,31.60
2022-12-11T19:10:44.887Z,30.23
2022-12-11T19:13:13.098Z,30.95
2022-12-11T19:15:47.354Z,35.25
2022-12-11T19:18:14.881Z,32.08
2022-12-11T19:20:49.446Z,35.10
2022-12-11T19:23:17.322Z,32.78
2022-12-11T19:25:46.895Z,29.65
2022-12-11T19:28:15.536Z,30.52
2022-12-11T19:30:48.887Z,30.17
2022-12-11T19:33:16.892Z,31.23
2022-12-11T19:35:44.720Z,31.88
2022-12-11T19:38:18.443Z,32.47
2022-12-11T19:40:46.087Z,30.70
2022-12-11T19:43:13.412Z,29.83
2022-12-11T19:45:41.448Z,32.25
2022-12-11T19:48:08.761Z,31.85
2022-12-11T19:50:36.482Z,33.53
2022-12-11T19:53:04.229Z,31.30
2022-12-11T19:55:31.799Z,32.03
2022-12-11T19:57:59.926Z,32.38
2022-12-11T20:00:27.230Z,31.63
2022-12-11T20:02:55.171Z,30.98
2022-12-11T20:05:22.608Z,30.20
2022-12-11T20:07:49.935Z,31.40
2022-12-11T20:10:17.226Z,30.92
2022-12-11T20:12:44.523Z,30.83
2022-12-11T20:15:12.265Z,32.13
2022-12-11T20:17:44.590Z,31.77
2022-12-11T20:20:11.999Z,32.63
2022-12-11T20:22:39.316Z,32.83
2022-12-11T20:25:07.403Z,33.53
2022-12-11T20:27:34.853Z,32.67
2022-12-11T20:30:03.564Z,29.95
2022-12-11T20:32:30.936Z,29.13
2022-12-11T20:34:58.319Z,30.33
2022-12-11T20:37:26.820Z,29.90
2022-12-11T20:39:54.234Z,28.92
2022-12-11T20:42:21.937Z,29.23
2022-12-11T20:44:50.619Z,30.83
2022-12-11T20:47:19.823Z,29.08
2022-12-11T20:49:48.300Z,29.42
2022-12-11T20:52:17.066Z,29.30
2022-12-11T20:54:44.565Z,27.63
2022-12-11T20:57:13.836Z,27.30
2022-12-11T20:59:41.229Z,28.83
2022-12-11T21:02:09.306Z,27.48
2022-12-11T21:04:41.609Z,28.75
2022-12-11T21:07:09.990Z,27.02
2022-12-11T21:09:38.236Z,28.80
2022-12-11T21:12:06.419Z,26.10
2022-12-11T21:14:33.910Z,26.33
2022-12-11T21:17:01.286Z,26.70
2022-12-11T21:19:28.660Z,28.52
2022-12-11T21:21:56.870Z,28.00
2022-12-11T21:24:26.665Z,26.95
2022-12-11T21:26:55.926Z,28.23
2022-12-11T21:29:24.663Z,28.58
2022-12-11T21:31:53.059Z,27.85
2022-12-11T21:34:25.367Z,29.48
2022-12-11T21:36:56.752Z,28.38
2022-12-11T21:39:25.287Z,28.00
2022-12-11T21:41:53.222Z,27.00
2022-12-11T21:47:09.212Z,27.25
2022-12-11T21:49:37.289Z,27.40
2022-12-11T21:52:05.197Z,26.85
2022-12-11T21:54:32.405Z,26.38
2022-12-11T21:56:59.715Z,28.15
2022-12-11T21:59:28.556Z,27.45
2022-12-11T22:01:55.935Z,27.77
2022-12-11T22:04:23.368Z,26.98
2022-12-11T22:06:50.801Z,27.30
2022-12-11T22:09:18.449Z,27.67
2022-12-11T22:11:46.152Z,26.33
2022-12-11T22:14:14.703Z,24.10
2022-12-11T22:16:42.653Z,22.38
2022-12-11T22:19:10.407Z,25.45
2022-12-11T22:21:38.097Z,25.52
2022-12-11T22:24:05.537Z,26.23
2022-12-11T22:26:32.805Z,26.17
2022-12-11T22:29:00.252Z,25.05
2022-12-11T22:31:27.652Z,24.50
2022-12-11T22:33:55.427Z,26.02
2022-12-11T22:36:25.231Z,25.20
2022-12-11T22:41:27.719Z,26.48
2022-12-11T22:43:56.178Z,26.30
2022-12-11T22:46:25.768Z,26.15
2022-12-11T22:48:53.643Z,26.90
2022-12-11T22:51:21.636Z,26.13
2022-12-11T22:53:49.197Z,28.15
2022-12-11T22:56:16.718Z,27.23
2022-12-11T22:58:44.038Z,26.83
2022-12-11T23:01:15.718Z,27.45
2022-12-11T23:03:43.368Z,26.63
2022-12-11T23:06:13.161Z,26.20
2022-12-11T23:08:41.339Z,26.27
2022-12-11T23:11:24.419Z,27.92
2022-12-11T23:13:52.433Z,26.40
2022-12-11T23:16:21.658Z,26.85
2022-12-11T23:18:48.976Z,27.63
2022-12-11T23:21:16.416Z,26.90
2022-12-11T23:23:43.883Z,25.83
2022-12-11T23:26:12.518Z,24.25
2022-12-11T23:28:40.293Z,23.10
2022-12-11T23:31:08.299Z,24.17
2022-12-11T23:33:36.318Z,23.30
2022-12-11T23:36:04.459Z,23.45
2022-12-11T23:38:32.543Z,23.88
2022-12-11T23:41:01.560Z,24.38
2022-12-11T23:43:29.013Z,23.85
2022-12-11T23:45:57.679Z,24.70
2022-12-11T23:48:25.030Z,24.45
2022-12-11T23:50:52.387Z,24.45
2022-12-11T23:53:19.624Z,24.92
2022-12-11T23:55:47.447Z,24.35
2022-12-11T23:58:15.285Z,24.85
